Airfield :
LOGIN :

Register | Disclaimer

   EN    FR    IT 

 










Legend :    VFR   Marginal VFR   IFR   Intensive IFR   Very Intensive IFR
Visi :
Ceiling :
>= 8 km
>= 3000ft
5 to 8 km
1000 to 3000 ft
1500m to 5 km
500 to 1000 ft
800 to 1500m
200 to 500 ft
< 800m
< 200 ft
Symbols :   Thunderstorms  Fog  Heavy snow  Heavy precipitations  Wind > 20 kt
SIGMETs :     Misc.  Thunderstorms  Icing  Turbulence  Mountain Waves  Volcanic Ashes







- Airport Elevation : 529 ft
- IATA code : CHR
- Download approach charts


LFLX - Chateauroux

CURRENT METAR :
  • 211230Z AUTO 28012KT 9999 FEW021 BKN026 BKN034 17/12 Q1019 NOSIG

EXPIRED METARs :
  • 211200Z AUTO 28010KT 9999 BKN021 BKN030 OVC110 16/12 Q1019 NOSIG
  • 211130Z AUTO 28011KT 9999 SCT016 BKN023 OVC110 16/12 Q1018 NOSIG
  • 211100Z AUTO 27010KT 9999 BKN011 BKN017 OVC037 15/13 Q1018 TEMPO 23020G30KT 2500 RA BKN010 FEW020CB
  • 211030Z AUTO 27007KT 9999 BKN035 BKN064 OVC088 14/13 Q1017 TEMPO 23020G30KT 2500 RA BKN010 FEW020CB
  • 211000Z AUTO 29009KT 9000 -RA FEW014/// SCT020/// OVC028/// ///TCU 13/12 Q1018 TEMPO 23020G30KT 2500 RA BKN010 FEW020CB
  • 210930Z AUTO 31016KT 9000 RA BKN007/// BKN013/// BKN019/// ///TCU 14/13 Q1016 TEMPO 23020G30KT 2500 RA BKN010 FEW020CB

TAF TAF LFLX
Valid from the 21 at 12:00 until the 22 at 18:00 UTC


211100Z 2112/2218 29010KT 9999 SCT030
BECMG 2113/2115 CAVOK
BECMG 2122/2124 20003KT
PROB40
TEMPO 2200/2207 0400 BCFG
No reported NOTAMs for that airfield.



MET'MAP, your aeronautical weather chart ! - Copyright ORBIFLY December 2007 - Disclaimer

ORBIFLY MET'MAP TEAM :

Programming & Development : Alexandra Zaïnal
Concept & Development : Baudouin d'Aumeries
Co-Development & Prog : Marc-Olivier Méhu
Technical & hardware support : Manuel Goepfert

Contact : metmap@orbifly.com




SOURCES & CREDITS :

   NOAA